Latest Coastal Weather Observations for Lucinda

IDQ60701

Issued at 11:42 pm EST Saturday 20 December 2014 (issued every 10 minutes, with the page automatically refreshed every 10 minutes)

About coastal observations | Map of coastal stations | Coastal observations for QLD | Marine services | Other Formats
Station Details ID: 032141 Name: LUCINDA POINT Lat: -18.52 Lon: 146.39 Height: 10.0 m
Data from the previous 72 hours. | See also: Recent months for locations in Queensland
Date/Time
EST
Temp

°C
Wind Pressure Rain
since 9am
mm
Weather Cloud Vis
km
Sea
Height
m
Swell
Dir
 
Speed
knots
Gust
knots
hPa Trend Height
m
Period
s
Dir
20/11:30pm 27.9 NE 10 12 1011.3 - 0.0 - - - - - - -
20/11:00pm 27.9 NE 11 14 1011.4 - 0.0 - - - - - - -
20/10:30pm 28.0 NE 12 14 1011.4 - 0.0 - - - - - - -
20/10:00pm 27.9 ENE 12 15 1011.4 - 0.0 - - - - - - -
20/09:30pm 27.9 NE 11 13 1011.5 - 0.0 - - - - - - -
20/09:00pm 27.9 NE 11 14 1011.2 - 0.0 - - - - - - -
20/08:30pm 27.9 NE 13 14 1010.9 - 0.0 - - - - - - -
20/08:00pm 27.9 NE 11 14 1010.7 - 0.0 - - - - - - -
20/07:30pm 28.0 NE 11 14 1010.3 - 0.0 - - - - - - -
20/07:00pm 27.9 NNE 12 15 1009.5 - 0.0 - - - - - - -
20/06:30pm 28.2 N 14 16 1008.8 - 0.0 - - - - - - -
20/06:00pm 28.5 N 13 15 1008.5 - 0.0 - - - - - - -
20/05:30pm 28.5 NNE 11 14 1008.3 - 0.0 - - - - - - -
20/05:00pm 28.4 NNE 12 14 1008.1 - 0.0 - - - - - - -
20/04:30pm 28.5 NNE 11 14 1008.2 - 0.0 - - - - - - -
20/04:00pm 28.4 NNE 10 11 1008.3 - 0.0 - - - - - - -
20/03:30pm 28.6 NE 8 10 1008.4 - 0.0 - - - - - - -
20/03:00pm 28.6 NNE 9 11 1008.6 - 0.0 - - - - - - -
20/02:30pm 28.1 NE 9 11 1008.8 - 0.0 - - - - - - -
20/02:00pm 28.5 NE 7 9 1009.3 - 0.0 - - - - - - -
20/01:30pm 29.4 E 5 8 1010.1 - 0.0 - - - - - - -
20/01:00pm 30.3 CALM 0 0 1010.5 - 0.0 - - - - - - -
20/12:30pm 31.6 NNW 2 4 1010.8 - 0.0 - - - - - - -
20/12:00pm 31.0 WNW 1 3 1011.3 - 0.0 - - - - - - -
20/11:30am 31.1 CALM 0 3 1011.6 - 0.0 - - - - - - -
20/11:00am 30.0 SSE 3 4 1011.7 - 0.0 - - - - - - -
20/10:30am 28.9 S 4 5 1011.9 - 0.0 - - - - - - -
20/10:00am 29.9 S 3 5 1011.9 - 0.0 - - - - - - -
20/09:30am 28.3 S 4 6 1011.9 - 0.0 - - - - - - -
20/09:00am 28.0 S 5 6 1011.7 - 0.0 - - - - - - -
20/08:30am 27.0 SW 4 4 1011.7 - 0.0 - - - - - - -
20/08:00am 26.8 SW 4 5 1011.5 - 0.0 - - - - - - -
20/07:30am 26.6 SW 6 6 1011.4 - 0.0 - - - - - - -
20/07:00am 26.2 SW 5 6 1011.1 - 0.0 - - - - - - -
20/06:30am 26.0 WSW 7 8 1010.8 - 0.0 - - - - - - -
20/06:00am 26.3 WSW 8 8 1010.7 - 0.0 - - - - - - -
20/05:30am 26.0 SW 7 9 1010.1 - 0.0 - - - - - - -
20/05:00am 26.4 SW 7 9 1009.9 - 0.0 - - - - - - -
20/04:30am 27.0 NNW 4 5 1009.6 - 0.0 - - - - - - -
20/04:00am 27.0 NW 5 8 1009.5 - 0.0 - - - - - - -
20/03:30am 27.2 NNW 7 8 1009.4 - 0.0 - - - - - - -
20/03:00am 27.3 NNW 5 6 1009.7 - 0.0 - - - - - - -
20/02:30am 27.3 N 5 6 1009.9 - 0.0 - - - - - - -
20/02:00am 27.4 N 7 8 1010.0 - 0.0 - - - - - - -
20/01:30am 27.3 N 6 8 1010.1 - 0.0 - - - - - - -
20/01:00am 27.4 N 7 9 1010.6 - 0.0 - - - - - - -
20/12:30am 27.5 N 10 13 1010.7 - 0.0 - - - - - - -
20/12:00am 27.4 NNE 10 12 1011.0 - 0.0 - - - - - - -
 
Date/Time
EST
Temp

°C
Wind Pressure Rain
since 9am
mm
Weather Cloud Vis
km
Sea
Height
m
Swell
Dir
 
Speed
knots
Gust
knots
hPa Trend Height
m
Period
s
Dir
19/11:30pm 27.5 NE 9 10 1011.6 - 0.0 - - - - - - -
19/11:00pm 27.4 NNE 7 8 1012.0 - 0.0 - - - - - - -
19/10:30pm 27.5 NNE 7 8 1012.0 - 0.0 - - - - - - -
19/10:00pm 27.5 NE 9 11 1011.8 - 0.0 - - - - - - -
19/09:30pm 27.5 NE 8 10 1011.6 - 0.0 - - - - - - -
19/09:00pm 27.4 E 7 9 1011.4 - 0.0 - - - - - - -
19/08:30pm 27.4 ESE 7 9 1011.2 - 0.0 - - - - - - -
19/08:00pm 27.4 E 7 9 1011.1 - 0.0 - - - - - - -
19/07:30pm 27.5 ENE 8 9 1010.8 - 0.0 - - - - - - -
19/07:00pm 27.4 E 9 11 1010.2 - 0.0 - - - - - - -
19/06:30pm 27.7 NE 12 14 1009.7 - 0.0 - - - - - - -
19/06:00pm 27.8 NE 13 14 1009.3 - 0.0 - - - - - - -
19/05:30pm 27.8 NE 15 17 1008.7 - 0.0 - - - - - - -
19/05:00pm 27.9 NE 15 16 1008.4 - 0.0 - - - - - - -
19/04:30pm 27.8 NE 17 19 1008.0 - 0.0 - - - - - - -
19/04:00pm 28.0 NNE 16 17 1008.2 - 0.0 - - - - - - -
19/03:30pm 27.9 NNE 15 16 1008.4 - 0.0 - - - - - - -
19/03:00pm 28.2 NNE 15 17 1008.5 - 0.0 - - - - - - -
19/02:30pm 28.2 NNE 14 16 1008.9 - 0.0 - - - - - - -
19/02:00pm 28.4 NNE 14 17 1009.2 - 0.0 - - - - - - -
19/01:30pm 28.3 N 14 17 1009.6 - 0.0 - - - - - - -
19/01:00pm 28.8 NNE 14 16 1010.0 - 0.0 - - - - - - -
19/12:30pm 28.5 N 15 17 1010.3 - 0.0 - - - - - - -
19/12:00pm 28.7 N 14 16 1010.6 - 0.0 - - - - - - -
19/11:30am 28.6 N 14 16 1010.9 - 0.0 - - - - - - -
19/11:00am 27.7 N 13 16 1011.2 - 0.0 - - - - - - -
19/10:30am 27.9 NNE 15 17 1011.4 - 0.0 - - - - - - -
19/10:00am 28.6 N 11 14 1011.7 - 0.0 - - - - - - -
19/09:30am 28.6 N 9 11 1011.8 - 0.0 - - - - - - -
19/09:00am 28.6 N 8 11 1011.9 - 0.0 - - - - - - -
19/08:30am 28.6 NE 4 5 1012.0 - 0.0 - - - - - - -
19/08:00am 28.1 WNW 2 4 1012.0 - 0.0 - - - - - - -
19/07:30am 26.7 WSW 5 6 1012.0 - 0.0 - - - - - - -
19/07:00am 26.0 SW 7 8 1011.9 - 0.0 - - - - - - -
19/06:30am 25.5 WSW 6 7 1011.4 - 0.0 - - - - - - -
19/06:00am 25.6 WSW 9 11 1011.0 - 0.0 - - - - - - -
19/05:30am 26.9 N 9 10 1010.3 - 0.0 - - - - - - -
19/05:00am 27.0 N 10 13 1009.5 - 0.0 - - - - - - -
19/04:30am 26.9 NNE 12 14 1009.1 - 0.0 - - - - - - -
19/04:00am 27.0 N 11 13 1009.0 - 0.0 - - - - - - -
19/03:30am 27.0 N 12 15 1009.1 - 0.0 - - - - - - -
19/03:00am 26.9 N 9 11 1009.4 - 0.0 - - - - - - -
19/02:30am 26.9 N 7 8 1009.8 - 0.0 - - - - - - -
19/02:00am 27.0 N 5 6 1010.3 - 0.0 - - - - - - -
19/01:30am 26.9 NE 3 4 1010.9 - 0.0 - - - - - - -
19/01:00am 26.8 CALM 0 0 1011.2 - 0.0 - - - - - - -
19/12:30am 26.8 NW 5 6 1011.7 - 0.0 - - - - - - -
19/12:00am 26.7 CALM 0 0 1011.8 - 0.0 - - - - - - -
 
Date/Time
EST
Temp

°C
Wind Pressure Rain
since 9am
mm
Weather Cloud Vis
km
Sea
Height
m
Swell
Dir
 
Speed
knots
Gust
knots
hPa Trend Height
m
Period
s
Dir
18/11:30pm 26.9 SW 7 11 1012.3 - 0.0 - - - - - - -
18/11:00pm 27.3 NNW 7 9 1012.5 - 0.0 - - - - - - -
18/10:30pm 27.5 NNW 9 12 1012.2 - 0.0 - - - - - - -
18/10:00pm 27.5 NNW 11 13 1011.6 - 0.0 - - - - - - -
18/09:30pm 27.6 N 13 17 1010.9 - 0.0 - - - - - - -
18/09:00pm 27.7 N 12 15 1010.8 - 0.0 - - - - - - -
18/08:30pm 27.6 N 13 16 1010.7 - 0.0 - - - - - - -
18/08:00pm 27.6 NNW 13 17 1010.4 - 0.0 - - - - - - -
18/07:30pm 27.6 N 14 17 1009.9 - 0.0 - - - - - - -
18/07:00pm 27.6 N 15 20 1009.5 - 0.0 - - - - - - -
18/06:30pm 27.6 N 17 20 1008.7 - 0.0 - - - - - - -
18/06:00pm 28.0 N 16 20 1008.7 - 0.0 - - - - - - -
18/05:30pm 28.1 N 19 23 1008.2 - 0.0 - - - - - - -
18/05:00pm 28.3 N 17 22 1008.2 - 0.0 - - - - - - -
18/04:30pm 28.2 N 19 23 1007.5 - 0.0 - - - - - - -
18/04:00pm 28.3 N 17 21 1007.8 - 0.0 - - - - - - -
18/03:30pm 28.4 N 20 23 1007.9 - 0.0 - - - - - - -
18/03:00pm 28.2 N 19 22 1008.5 - 0.0 - - - - - - -
18/02:30pm 28.1 N 19 22 1008.8 - 0.0 - - - - - - -
18/02:00pm 28.2 N 18 23 1009.4 - 0.0 - - - - - - -
18/01:30pm 28.4 N 19 22 1009.7 - 0.0 - - - - - - -
18/01:00pm 28.2 N 18 22 1009.9 - 0.0 - - - - - - -
18/12:30pm 28.1 N 20 22 1010.1 - 0.0 - - - - - - -
18/12:00pm 28.4 N 18 23 1010.5 - 0.0 - - - - - - -
18/11:30am 28.2 N 17 21 1010.8 - 0.0 - - - - - - -
18/11:00am 28.3 N 16 19 1010.9 - 0.0 - - - - - - -
18/10:30am 28.2 NNW 13 18 1011.4 - 0.0 - - - - - - -
18/10:00am 28.1 N 15 17 1011.3 - 0.0 - - - - - - -
18/09:30am 28.2 NNW 12 17 1011.6 - 0.0 - - - - - - -
18/09:00am 28.5 NNW 15 18 1011.7 - 0.0 - - - - - - -
18/08:30am 28.6 NNW 13 16 1011.6 - 0.0 - - - - - - -
18/08:00am 28.4 NNW 11 14 1011.5 - 0.0 - - - - - - -
18/07:30am 28.4 NNW 13 17 1011.3 - 0.0 - - - - - - -
18/07:00am 27.8 NNW 16 19 1011.0 - 0.0 - - - - - - -
18/06:30am 27.6 NNW 15 20 1010.5 - 0.0 - - - - - - -
18/06:00am 27.4 NNW 16 19 1010.0 - 0.0 - - - - - - -
18/05:30am 27.0 NNW 14 17 1009.4 - 0.0 - - - - - - -
18/05:00am 27.1 NNW 12 16 1009.2 - 0.0 - - - - - - -
18/04:30am 27.2 NNW 14 16 1008.9 - 0.0 - - - - - - -
18/04:00am 27.2 NNW 13 17 1008.6 - 0.0 - - - - - - -
18/03:30am 27.3 N 12 15 1008.4 - 0.0 - - - - - - -
18/03:00am 27.3 NNW 13 16 1008.4 - 0.0 - - - - - - -
18/02:30am 27.3 NNW 12 17 1008.5 - 0.0 - - - - - - -
18/02:00am 27.4 NNW 13 17 1008.6 - 0.0 - - - - - - -
18/01:30am 27.4 N 13 16 1008.5 - 0.0 - - - - - - -
18/01:00am 27.6 NNW 13 17 1008.9 - 0.0 - - - - - - -
18/12:30am 27.6 NNW 14 17 1009.1 - 0.0 - - - - - - -
18/12:00am 27.8 NNW 13 17 1009.5 - 0.0 - - - - - - -

Other Formats:

Comma delimited format used in spreadsheet applications
http://www.bom.gov.au/fwo/IDQ60701/IDQ60701.94295.axf

JavaScript Object Notation format (JSON) in row-major order
http://www.bom.gov.au/fwo/IDQ60701/IDQ60701.94295.json